Home > Products > Valid Products > TAF

000
FTUS43 KIWX 281100
TAFFWA
TAF
KFWA 281120Z 2812/2912 30010KT P6SM SCT015 BKN025
      TEMPO 2812/2814 BKN015
     FM281400 34012G20KT P6SM BKN025
     FM281800 33014G22KT P6SM SCT035
     FM290000 31004KT P6SM SKC=



000
FTUS43 KIWX 280500
TAFFWA
TAF
KFWA 280531Z 2806/2906 30010KT P6SM BKN015
     FM281400 34014G22KT P6SM BKN025
     FM281900 33014G22KT P6SM SCT035
     FM290000 32005KT P6SM SKC=



000
FTUS43 KIWX 280000 AAB
TAFFWA
TAF AMD
KFWA 280033Z 2801/2824 31011G19KT P6SM BKN060
     FM280200 31013KT P6SM SCT080
     FM280700 32012KT P6SM BKN015
     FM281500 34014G22KT P6SM BKN025
     FM281900 34014G22KT P6SM SCT035=



000
FTUS43 KIWX 272300 AAA
TAFFWA
TAF AMD
KFWA 272343Z 2800/2824 25011KT P6SM VCSH BKN050
      TEMPO 2800/2801 6SM -SHRA
     FM280100 31013G21KT P6SM BKN050
     FM280200 31013KT P6SM SCT080
     FM280700 32012KT P6SM BKN015
     FM281500 34014G22KT P6SM BKN025
     FM281900 34014G22KT P6SM SCT035=



000
FTUS43 KIWX 272300
TAFFWA
TAF
KFWA 272331Z 2800/2824 31013G21KT P6SM VCSH BKN050
     FM280200 31013KT P6SM SCT080
     FM280700 32012KT P6SM BKN015
     FM281500 34014G22KT P6SM BKN025
     FM281900 34014G22KT P6SM SCT035=



000
FTUS43 KIWX 272000 AAA
TAFFWA
TAF AMD
KFWA 272051Z 2721/2818 23008KT P6SM VCTS BKN050CB
     FM272100 26010KT 5SM TSRA SCT025CB BKN050
      TEMPO 2721/2722 27020G35KT 2SM +TSRA BKN015CB
     FM272200 29013G20KT P6SM BKN035
     FM280500 31012KT P6SM BKN015
      TEMPO 2805/2808 4SM BR BKN008=



000
FTUS43 KIWX 271700
TAFFWA
TAF
KFWA 271720Z 2718/2818 23008KT P6SM VCTS SCT009 BKN015CB
     FM271900 26010KT P6SM VCTS SCT025CB BKN035
      TEMPO 2719/2722 3SM -TSRA BKN020CB
     FM272300 29013G20KT P6SM BKN035
     FM280500 31012KT P6SM BKN015
      TEMPO 2805/2808 4SM BR BKN008=



000
FTUS43 KIWX 271400 AAA
TAFFWA
TAF AMD
KFWA 271428Z 2714/2812 23005KT P6SM VCSH SCT008 BKN040
      TEMPO 2715/2717 4SM -SHRA OVC008
     FM271700 26010KT 6SM -SHRA VCTS SCT025CB BKN035
     FM272100 29012G20KT P6SM VCSH BKN035
     FM280100 29010KT 6SM BR SCT008 BKN035
      TEMPO 2803/2807 3SM BR BKN008
     FM280700 31010KT 5SM BR BKN008=



000
FTUS43 KIWX 271100
TAFFWA
TAF
KFWA 271120Z 2712/2812 23005KT 6SM BR SCT008 BKN015
     FM271700 26010KT 6SM -SHRA VCTS SCT025CB BKN035
     FM272100 29012G20KT P6SM VCSH BKN035
     FM280100 29010KT 6SM BR SCT008 BKN035
      TEMPO 2803/2807 3SM BR BKN008
     FM280700 31010KT 5SM BR BKN008=



000
FTUS43 KIWX 270500
TAFFWA
TAF
KFWA 270535Z 2706/2806 23005KT 3SM BR SCT008 BKN015
      TEMPO 2706/2710 1SM BR SCT004 OVC008
     FM271700 26010KT 6SM -SHRA VCTS SCT025CB BKN035
     FM272100 29012G20KT P6SM VCSH BKN035
     FM280100 29010KT 6SM BR SCT008 BKN035
      TEMPO 2803/2806 3SM BR BKN008=



000
FTUS43 KIWX 270400 AAB
TAFFWA
TAF AMD
KFWA 270446Z 2705/2724 23005KT 3SM BR SCT008 BKN015
      TEMPO 2705/2709 1SM BR SCT004 OVC008
     FM271500 23008KT 6SM BR VCSH BKN035
     FM271800 29010KT 6SM -SHRA VCTS SCT025CB BKN035=



000
FTUS43 KIWX 270200 AAA
TAFFWA
TAF AMD
KFWA 270200Z 2702/2724 24007KT 4SM BR SCT009 OVC012
      TEMPO 2703/2705 BKN009
     FM270500 22005KT 3SM BR SCT015 BKN025
     FM271500 23008KT 6SM BR VCSH BKN035
     FM271800 29010KT 6SM -SHRA VCTS SCT025CB BKN035=



000
FTUS43 KIWX 262300 RRA
TAFFWA
TAF
KFWA 262346Z 2700/2724 25006KT P6SM OVC022
      TEMPO 2700/2703 BKN018
     FM270300 25005KT P6SM VCSH OVC022
     FM270800 22005KT 4SM BR BKN025
     FM271500 23008KT 6SM BR VCSH BKN035
     FM271800 29010KT 6SM -SHRA VCTS SCT025CB BKN035=



000
FTUS43 KIWX 261800 AAA
TAFFWA
TAF AMD
KFWA 261812Z 2618/2718 21008KT P6SM VCSH BKN025 OVC080
      TEMPO 2619/2621 4SM TSRA BKN020CB
     FM262100 23008KT P6SM SCT025 BKN035
     FM270200 25006KT P6SM VCSH BKN040
      TEMPO 2703/2707 3SM TSRA OVC020CB
     FM270900 21005KT 5SM BR OVC015=



000
FTUS43 KIWX 261700
TAFFWA
TAF
KFWA 261720Z 2618/2718 23008KT P6SM SCT025 BKN040
     FM270200 25006KT P6SM VCSH BKN040
      TEMPO 2703/2707 3SM TSRA OVC020CB
     FM270900 21005KT 5SM BR OVC015=



000
FTUS43 KIWX 261100
TAFFWA
TAF
KFWA 261120Z 2612/2712 20004KT P6SM BKN060
     FM261300 23010KT P6SM SCT035 BKN070
     FM262300 25006KT P6SM VCSH BKN040
      TEMPO 2702/2706 3SM TSRA OVC020CB=



000
FTUS43 KIWX 260500
TAFFWA
TAF
KFWA 260528Z 2606/2706 20004KT P6SM BKN060
     FM261300 23010KT P6SM SCT035 BKN070
     FM262300 25006KT P6SM VCSH BKN040
      TEMPO 2701/2705 3SM TSRA OVC020CB=



000
FTUS43 KIWX 260200 AAA
TAFFWA
TAF AMD
KFWA 260241Z 2603/2624 19005KT P6SM BKN050
     FM261300 22009KT P6SM SCT040 BKN070
     FM261900 23012KT P6SM VCTS SCT035CB BKN050=



000
FTUS43 KIWX 252300
TAFFWA
TAF
KFWA 252340Z 2600/2624 22007KT P6SM SCT050 BKN080
     FM260500 20005KT P6SM BKN080
     FM261300 22009KT P6SM SCT040 BKN070
     FM261900 23012KT P6SM VCTS SCT035CB BKN050=



000
FTUS43 KIWX 251700
TAFFWA
TAF
KFWA 251720Z 2518/2618 22007KT P6SM FEW050 BKN200
     FM260400 20005KT P6SM BKN080=



    US Dept of Commerce
    National Oceanic and Atmospheric Administration
    National Weather Service
    1325 East West Highway
    Silver Spring, MD 20910
    Page Author: NWS Internet Services Team
Disclaimer
Information Quality
Credits
Glossary
Privacy Policy
Freedom of Information Act (FOIA)
About Us
Career Opportunities